ESGT/THN METAR and TAF weather

Enter ICAO airport designator
Station Type Date Time Source
ESGT METAR 2019/02/23 02:20 UTC NOAA

ESGT 230220Z AUTO 21011KT 9999 OVC012/// 03/00 Q1039


Station Type Date Time Source
ESGT Decoded METAR 2019/02/23 02:20 UTC NOAA

Trollhattan Private , Sweden (ESGT) 58-19N 012-21E
Feb 22, 2019 - 09:20 PM EST / 2019.02.23 0220 UTC
Wind: from the SSW (210 degrees) at 13 MPH (11 KT):0
Visibility: greater than 7 mile(s):0
Sky conditions: overcast
Temperature: 37 F (3 C)
Dew Point: 32 F (0 C)
Relative Humidity: 80%
Pressure (altimeter): 30.68 in. Hg (1039 hPa)
ob: ESGT 230220Z AUTO 21011KT 9999 OVC012/// 03/00 Q1039
cycle: 2

Station Type Date Time Source
ESGT TAF 2016/08/12 05:58 UTC NOAA

TAF ESGT 120430Z 1205/1224 18007KT 9999 FEW030


Example: see airport list